Lawton, OK (73507)

4:22 PM CST on March 06, 2015 (GMT -0600)
Old Town North | Change Station
CLOSE
Current Station
Personal Weather Station
Location: Lawton, OK
Elevation: 1168 ft
Nearby Weather Stations

Elev 1168 ft 34.61 °N, 98.41 °W | Updated 1 minute ago

Clear
Clear
54.7 °F
Feels Like 54.7 °F
N
5.8
Wind Variable Wind from SSE

Today
High -- | Low -- °F
--% Chance of Precip.
Yesterday
High -- | Low -- °F
Precip. -- in
6:56 AM 6:33 PM
Full, 99% visible
Pressure 30.39 in
Visibility 10.0 miles
Clouds Clear
Dew Point 30 °F
Humidity 39%
Rainfall in
Snow Depth Not available.
UV 3 out of 12
Pollen 7.50 out of 12
Air Quality Not available.
Flu Activity Not available.
METAR KFSI 062158Z AUTO 21012KT 10SM CLR 13/M01 A3037 RMK AO2 SLP289 T01321012

More Conditions Fewer Conditions

Pressure 30.39 in
Visibility 10.0 miles
Clouds Clear
Dew Point 30 °F
Humidity 39%
Rainfall in
Snow Depth Not available.
UV 3 out of 12
Pollen 7.50 out of 12
Air Quality Not available.
Flu Activity Not available.
METAR KFSI 062158Z AUTO 21012KT 10SM CLR 13/M01 A3037 RMK AO2 SLP289 T01321012

More Conditions Fewer Conditions

10-Day Weather Forecast

Almanac

Astronomy

Mar. 06, 2015 Rise Set
Actual Time
Civil Twilight
Nautical Twilight
Astronomical Twilight
Moon
Length of Visible Light
Length of Day
Tomorrow will be .
, % of the Moon is Illuminated

Today's Extremes

State Highs State Lows

Community

WunderPhotos

Upload Photos

1,803,420 photos uploaded!

WunderBlogs® & News

Nearby

Air Quality

  Air Quality AQ Index Pollutant
Not available.

Snow Depth

Station Depth Elevation

Earthquake Activity

City Distance Mag. Time & Date
Minimum magnitude displayed is 2.5.

Coastal Water Temperatures

Place Temperature

Nearby Weather Stations